KSEAPAGY

Guest
Details From KSEA - Seattle Tacoma Intl
To PAGY - Skagway
Flight Number -
Tags Generated
Created
Modified
Stats Distance 855 nm / 1,583 km
Max Altitude 0 ft / 0 m
Waypoints 4
Social Downloads 0
Likes 0
Share VATSIM

Download

Looking for another format? Having issues loading an existing format? Contact us
Advertisement - Login to hide

Notes

Generated

Route

KSEA RIBIT 11380 PAGY

ID Type Via Altitude Latitude Longitude Leg Dist Tot Dist Heading (true) Name
O KSEA APT - 0 ft / 0 m 47.46383˚ -122.31786˚ - 0 nm - -
RIBIT FIX - 0 ft / 0 m 55.90556˚ -129.91861˚ 579 nm 579 nm 334° / 328° -
11380 FIX - 0 ft / 0 m 59.41261˚ -135.20033˚ 270 nm 850 nm 323° / 319° -
O PAGY APT - 0 ft / 0 m 59.45657˚ -135.32229˚ 4 nm 854 nm 305° / 305° SKAGWAY

Altitude Profile

Advertisement - Login to hide

Weather


0- 5 10 15 20 25 30 35+ Temperature / ° C

Clouds and Precipitation
Forecast for 2018-05-25 06:00 UTC. Updated an hour ago

Ground ~20,000 ft ~40,000 ft Winds

KSEA

Details ICAO KSEA (SEA)
Name Seattle Tacoma Intl
Region United States
Timezone America/Los_Angeles (UTC-7.0)
Stats Elevation 433 ft / 132 m (AMSL)
Location 47.450188° -122.312320°
Runways 3
Magnetic Variation 15.622° E

METAR

KSEA 250553Z 35005KT 10SM FEW040 SCT250 14/11 A3004 RMK AO2 SLP177 T01440106 10211 20139 53007

Decode

TAF

KSEA 250525Z 2506/2612 29005KT P6SM FEW040 SCT250 FM250800 VRB03KT P6SM SCT040 SCT250 FM251200 VRB03KT P6SM BKN025 FM251700 32005KT P6SM BKN030 FM252000 33005KT P6SM SCT035 FM260000 35008KT P6SM SCT040 BKN060 FM260500 VRB03KT P6SM BKN050

Decode

Departure Runways

ID Width Length Bearing (true) Bearing (mag) Surface Threshold Offset Overrun Length
16C 151 ft / 46 m 9,429 ft / 2,874 m 180.34° 164.72° Concrete 0 ft / 0 m 223 ft / 68 m
16L 151 ft / 46 m 11,904 ft / 3,628 m 180.34° 164.72° Concrete 0 ft / 0 m 151 ft / 46 m
16R 151 ft / 46 m 8,503 ft / 2,592 m 180.34° 164.72° Concrete 0 ft / 0 m 164 ft / 50 m
34C 151 ft / 46 m 9,429 ft / 2,874 m 0.34° 344.72° Concrete 0 ft / 0 m 394 ft / 120 m
34L 151 ft / 46 m 8,503 ft / 2,592 m 0.34° 344.72° Concrete 0 ft / 0 m 394 ft / 120 m
34R 151 ft / 46 m 11,904 ft / 3,628 m 0.34° 344.72° Concrete 0 ft / 0 m 400 ft / 122 m

PAGY

Details ICAO PAGY (SGY)
Name SKAGWAY
Region USA (Alaska)
Timezone America/Juneau (UTC-8.0)
Stats Elevation 44 ft / 13 m (AMSL)
Location 59.460062° -135.315661°
Runways 1
Magnetic Variation 19.211° E

METAR

PAGY 250553Z AUTO 20010KT 10SM FEW049 BKN055 OVC075 10/03 A2993 RMK AO2 RAB39E49 SLP135 P0000 60000 T01000033 10133 20094 56002 TSNO

Decode

TAF

TAF PAGY 250529Z 2506/2606 20012KT P6SM VCSH OVC060 FM251200 VRB05KT P6SM VCSH OVC050 FM251900 21012G20KT P6SM -RA SCT035 OVC050 AMD LTD TO CLD VIS AND WIND

Decode

Destination Runways

ID Width Length Bearing (true) Bearing (mag) Surface Threshold Offset Overrun Length
02 75 ft / 23 m 3,542 ft / 1,080 m 43.94° 24.73° Asphalt 0 ft / 0 m 299 ft / 91 m
20 75 ft / 23 m 3,542 ft / 1,080 m 223.95° 204.74° Asphalt 0 ft / 0 m 299 ft / 91 m